EST,Max TemperatureF,Mean TemperatureF,Min TemperatureF,Max Dew PointF,MeanDew PointF,Min DewpointF,Max Humidity, Mean Humidity, Min Humidity, Max Sea Level PressureIn, Mean Sea Level PressureIn, Min Sea Level PressureIn, Max VisibilityMiles, Mean VisibilityMiles, Min VisibilityMiles, Max Wind SpeedMPH, Mean Wind SpeedMPH, Max Gust SpeedMPH,PrecipitationIn, CloudCover, Events, WindDirDegrees
2012-12-1,62,46,30,43,37,30,100,80,45,30.42,30.37,30.33,10,8,2,6,0,,0.00,0,,210
2012-12-2,64,48,33,46,41,32,100,78,49,30.42,30.34,30.28,10,8,0,9,2,,0.00,0,,199
2012-12-3,71,60,48,54,50,46,100,78,46,30.31,30.27,30.23,10,10,4,9,5,,0.00,1,,246
2012-12-4,69,56,44,55,51,45,100,81,49,30.34,30.27,30.21,10,8,0,10,2,17,0.00,2,,217
2012-12-5,68,55,41,55,51,41,100,85,60,30.22,30.17,30.12,10,10,1,16,6,23,0.00,5,,270
2012-12-6,50,42,33,43,33,28,100,75,47,30.34,30.28,30.22,10,10,0,12,5,,0.00,2,,49
2012-12-7,62,52,41,57,45,34,100,81,63,30.24,30.12,30.01,10,9,1,9,4,,0.00,8,,74
2012-12-8,62,56,50,57,52,48,100,90,63,30.08,30.02,29.98,10,6,0,9,2,,0.00,4,,247
2012-12-9,71,60,50,57,53,50,100,82,50,30.17,30.11,30.03,10,8,2,13,3,17,0.00,5,,186
2012-12-10,69,64,59,63,58,54,100,82,56,30.02,29.85,29.76,10,10,10,18,7,24,0.00,4,,210
2012-12-11,62,54,46,55,49,36,94,73,59,30.16,29.95,29.78,10,10,10,12,7,17,0.00,6,,7
2012-12-12,46,42,37,41,37,34,100,86,70,30.32,30.26,30.16,10,9,5,15,8,18,0.49,8,,28
2012-12-13,50,42,32,39,36,32,100,85,62,30.35,30.31,30.24,10,10,5,17,11,23,0.40,6,,13
2012-12-14,53,40,28,36,31,21,100,80,28,30.37,30.31,30.25,10,9,1,5,0,,0.00,0,,338
2012-12-15,51,40,28,43,34,27,100,82,47,30.30,30.22,30.12,10,8,0,7,1,,0.00,4,,83
2012-12-16,55,50,44,55,50,43,100,98,87,30.12,30.03,29.93,10,7,2,10,2,,0.26,8,Thunderstorm,218
2012-12-17,62,58,53,55,54,52,100,93,77,29.94,29.83,29.67,10,8,1,18,4,24,0.33,7,,207
2012-12-18,60,50,39,54,45,32,94,72,45,29.93,29.76,29.68,10,10,10,14,7,18,0.00,3,Thunderstorm,266
2012-12-19,62,47,32,37,34,30,100,71,34,30.16,30.03,29.92,10,10,3,9,2,17,0.00,0,,268
2012-12-20,62,47,32,59,43,32,100,82,63,30.20,30.01,29.56,10,8,0,21,5,29,0.17,2,,130
2012-12-21,62,48,35,61,30,19,100,58,39,29.82,29.65,29.47,10,10,5,22,15,34,0.15,4,,267
2012-12-22,46,38,30,25,21,19,75,51,34,30.10,29.98,29.82,10,10,10,17,8,26,0.00,0,,280
2012-12-23,51,38,24,28,24,18,93,60,30,30.18,30.10,30.05,10,10,10,10,2,,0.00,0,,226
2012-12-24,55,48,42,37,33,28,71,55,38,30.08,30.01,29.95,10,10,10,9,5,,0.00,7,,216
2012-12-25,59,48,37,45,40,34,100,73,51,30.18,30.07,29.95,10,10,0,13,3,17,0.00,3,,65
2012-12-26,64,53,42,61,47,37,100,89,76,30.13,29.74,29.44,10,9,2,22,11,33,1.10,7,Thunderstorm,124
2012-12-27,46,40,33,37,31,27,81,68,50,30.09,29.88,29.65,10,10,10,18,9,24,0.00,1,,291
2012-12-28,42,34,26,32,28,23,100,74,53,30.20,30.13,30.05,10,10,10,4,0,,0.00,2,,134
2012-12-29,50,44,37,43,36,28,100,80,57,30.06,29.81,29.66,10,8,2,13,5,24,1.05,5,,330
2012-12-30,44,35,26,28,22,18,86,58,36,30.39,30.23,29.92,10,10,10,13,7,23,0.00,0,,304
2012-12-31,51,36,21,34,25,19,100,67,32,30.39,30.29,30.13,10,10,5,15,2,23,0.00,1,,230